createdAt,value
2024-04-18T00:00:02.081Z,98702.88
2024-04-18T00:01:06.338Z,98707.22
2024-04-18T00:02:08.590Z,98701.80
2024-04-18T00:03:10.963Z,98692.73
2024-04-18T00:04:13.249Z,98695.38
2024-04-18T00:05:15.557Z,98683.94
2024-04-18T00:06:17.898Z,98689.23
2024-04-18T00:07:20.200Z,98689.36
2024-04-18T00:08:24.311Z,98686.70
2024-04-18T00:09:26.443Z,98686.02
2024-04-18T00:10:28.659Z,98682.52
2024-04-18T00:11:30.995Z,98681.69
2024-04-18T00:12:33.052Z,98681.41
2024-04-18T00:13:37.678Z,98683.25
2024-04-18T00:14:39.952Z,98683.25
2024-04-18T00:15:54.456Z,98674.45
2024-04-18T00:16:58.685Z,98675.42
2024-04-18T00:18:01.193Z,98676.27
2024-04-18T00:19:03.564Z,98671.08
2024-04-18T00:20:06.466Z,98660.63
2024-04-18T00:21:08.893Z,98659.95
2024-04-18T00:22:13.156Z,98664.55
2024-04-18T00:23:15.443Z,98662.19
2024-04-18T00:24:17.687Z,98664.11
2024-04-18T00:25:32.550Z,98668.03
2024-04-18T00:26:34.763Z,98661.05
2024-04-18T00:27:37.033Z,98661.89
2024-04-18T00:28:39.301Z,98668.30
2024-04-18T00:29:43.635Z,98673.61
2024-04-18T00:30:45.985Z,98669.84
2024-04-18T00:31:48.193Z,98667.19
2024-04-18T00:32:52.483Z,98668.88
2024-04-18T00:34:12.750Z,98670.68
2024-04-18T00:35:21.200Z,98672.33
2024-04-18T00:36:23.647Z,98671.25
2024-04-18T00:37:25.976Z,98673.91
2024-04-18T00:38:37.088Z,98676.55
2024-04-18T00:39:39.602Z,98666.77
2024-04-18T00:40:45.651Z,98678.08
2024-04-18T00:41:53.468Z,98677.09
2024-04-18T00:42:59.430Z,98675.44
2024-04-18T00:44:04.342Z,98681.70
2024-04-18T00:45:09.480Z,98680.01
2024-04-18T00:46:20.890Z,98684.50
2024-04-18T00:47:25.259Z,98684.63
2024-04-18T00:48:43.106Z,98687.00
2024-04-18T00:49:45.715Z,98685.88
2024-04-18T00:50:49.974Z,98680.58
2024-04-18T00:51:55.502Z,98680.58
2024-04-18T00:52:58.242Z,98677.93
2024-04-18T00:54:01.193Z,98677.81
2024-04-18T00:55:23.280Z,98672.51
2024-04-18T00:56:27.810Z,98675.00
2024-04-18T00:57:33.031Z,98668.73
2024-04-18T00:58:37.327Z,98668.73
2024-04-18T00:59:42.749Z,98659.25
2024-04-18T01:00:51.174Z,98661.19
2024-04-18T01:02:12.331Z,98658.81
2024-04-18T01:03:14.749Z,98662.45
2024-04-18T01:04:17.214Z,98659.39
2024-04-18T01:05:21.728Z,98652.41
2024-04-18T01:06:24.174Z,98648.07
2024-04-18T01:07:44.788Z,98648.91
2024-04-18T01:08:59.292Z,98658.67
2024-04-18T01:10:07.815Z,98660.36
2024-04-18T01:11:10.182Z,98666.50
2024-04-18T01:12:12.626Z,98668.16
2024-04-18T01:13:14.885Z,98661.32
2024-04-18T01:14:35.661Z,98663.12
2024-04-18T01:15:37.944Z,98658.13
2024-04-18T01:16:40.289Z,98656.45
2024-04-18T01:17:42.677Z,98656.72
2024-04-18T01:18:44.961Z,98661.45
2024-04-18T01:19:50.390Z,98657.15
2024-04-18T01:20:52.664Z,98659.92
2024-04-18T01:21:57.515Z,98656.73
2024-04-18T01:22:59.960Z,98659.77
2024-04-18T01:24:18.549Z,98659.08
2024-04-18T01:25:22.577Z,98665.61
2024-04-18T01:26:24.825Z,98666.45
2024-04-18T01:27:28.326Z,98666.73
2024-04-18T01:28:30.637Z,98662.42
2024-04-18T01:29:35.970Z,98667.56
2024-04-18T01:30:41.949Z,98668.41
2024-04-18T01:31:46.013Z,98670.91
2024-04-18T01:32:48.240Z,98678.73
2024-04-18T01:33:50.459Z,98677.77
2024-04-18T01:34:52.609Z,98669.67
2024-04-18T01:35:55.102Z,98678.19
2024-04-18T01:36:57.167Z,98678.61
2024-04-18T01:38:05.624Z,98678.46
2024-04-18T01:39:09.606Z,98682.52
2024-04-18T01:40:11.936Z,98681.41
2024-04-18T01:41:14.127Z,98674.99
2024-04-18T01:42:23.879Z,98684.48
2024-04-18T01:43:26.210Z,98676.26
2024-04-18T01:44:36.215Z,98678.62
2024-04-18T01:45:57.031Z,98686.16
2024-04-18T01:46:59.424Z,98685.03
2024-04-18T01:48:07.929Z,98678.77
2024-04-18T01:49:12.124Z,98679.46
2024-04-18T01:50:29.317Z,98682.95
2024-04-18T01:51:31.545Z,98680.99
2024-04-18T01:52:34.001Z,98684.33
2024-04-18T01:53:39.453Z,98680.72
2024-04-18T01:54:43.508Z,98679.59
2024-04-18T01:55:45.875Z,98675.83
2024-04-18T01:56:49.902Z,98674.02
2024-04-18T01:57:54.156Z,98673.90
2024-04-18T01:59:01.226Z,98669.28
2024-04-18T02:00:04.157Z,98662.02
2024-04-18T02:01:08.496Z,98673.47
2024-04-18T02:02:11.043Z,98672.47
2024-04-18T02:03:13.574Z,98670.81
2024-04-18T02:04:16.521Z,98670.94
2024-04-18T02:05:18.967Z,98669.13
2024-04-18T02:06:21.182Z,98672.78
2024-04-18T02:07:23.480Z,98667.32
2024-04-18T02:08:27.722Z,98670.81
2024-04-18T02:09:29.944Z,98664.52
2024-04-18T02:10:32.506Z,98667.89
2024-04-18T02:11:42.481Z,98659.94
2024-04-18T02:12:47.894Z,98664.39
2024-04-18T02:13:50.051Z,98652.67
2024-04-18T02:14:52.298Z,98663.27
2024-04-18T02:15:54.476Z,98656.00
2024-04-18T02:16:56.668Z,98653.35
2024-04-18T02:17:58.968Z,98654.20
2024-04-18T02:19:03.170Z,98647.20
2024-04-18T02:20:07.628Z,98642.22
2024-04-18T02:21:15.626Z,98640.53
2024-04-18T02:22:26.983Z,98641.66
2024-04-18T02:23:47.879Z,98641.09
2024-04-18T02:25:09.405Z,98641.25
2024-04-18T02:26:11.692Z,98644.02
2024-04-18T02:27:14.012Z,98652.25
2024-04-18T02:28:16.157Z,98650.03
2024-04-18T02:29:18.806Z,98642.36
2024-04-18T02:30:25.345Z,98652.11
2024-04-18T02:31:28.910Z,98645.44
2024-04-18T02:32:31.827Z,98642.22
2024-04-18T02:33:34.232Z,98639.58
2024-04-18T02:34:38.489Z,98635.39
2024-04-18T02:35:48.568Z,98641.81
2024-04-18T02:37:09.095Z,98638.47
2024-04-18T02:38:11.311Z,98644.73
2024-04-18T02:39:13.853Z,98640.40
2024-04-18T02:40:16.207Z,98643.20
2024-04-18T02:41:20.537Z,98641.67
2024-04-18T02:42:26.264Z,98640.83
2024-04-18T02:43:34.357Z,98642.63
2024-04-18T02:44:36.847Z,98638.33
2024-04-18T02:45:39.255Z,98638.45
2024-04-18T02:47:00.084Z,98636.80
2024-04-18T02:48:02.328Z,98642.38
2024-04-18T02:49:19.716Z,98647.79
2024-04-18T02:50:31.120Z,98644.87
2024-04-18T02:51:33.487Z,98654.90
2024-04-18T02:52:47.917Z,98649.72
2024-04-18T02:53:50.022Z,98656.97
2024-04-18T02:54:52.091Z,98650.98
2024-04-18T02:55:54.652Z,98650.30
2024-04-18T02:56:59.040Z,98649.57
2024-04-18T02:58:01.343Z,98644.58
2024-04-18T02:59:03.354Z,98639.40
2024-04-18T03:00:08.031Z,98647.61
2024-04-18T03:01:10.400Z,98632.15
2024-04-18T03:02:14.112Z,98632.57
2024-04-18T03:03:16.299Z,98630.19
2024-04-18T03:04:37.188Z,98631.30
2024-04-18T03:05:39.243Z,98632.38
2024-04-18T03:06:41.486Z,98633.49
2024-04-18T03:07:46.776Z,98647.57
2024-04-18T03:08:49.310Z,98642.42
2024-04-18T03:09:51.819Z,98641.31
2024-04-18T03:11:03.034Z,98641.43
2024-04-18T03:12:11.629Z,98643.27
2024-04-18T03:13:14.023Z,98636.14
2024-04-18T03:14:25.073Z,98638.94
2024-04-18T03:15:29.304Z,98638.24
2024-04-18T03:16:50.262Z,98640.89
2024-04-18T03:17:55.552Z,98641.70
2024-04-18T03:19:12.387Z,98636.29
2024-04-18T03:20:16.454Z,98635.33
2024-04-18T03:21:20.482Z,98628.34
2024-04-18T03:22:22.828Z,98631.95
2024-04-18T03:23:27.182Z,98617.19
2024-04-18T03:24:38.406Z,98624.28
2024-04-18T03:25:40.675Z,98627.92
2024-04-18T03:26:42.937Z,98622.90
2024-04-18T03:27:45.486Z,98623.74
2024-04-18T03:28:47.988Z,98635.02
2024-04-18T03:29:50.250Z,98636.83
2024-04-18T03:30:54.558Z,98641.16
2024-04-18T03:31:56.636Z,98639.35
2024-04-18T03:33:00.956Z,98635.02
2024-04-18T03:34:05.019Z,98638.36
2024-04-18T03:35:09.066Z,98634.75
2024-04-18T03:36:15.859Z,98636.29
2024-04-18T03:37:18.062Z,98642.28
2024-04-18T03:38:20.259Z,98638.94
2024-04-18T03:39:22.488Z,98635.45
2024-04-18T03:40:24.857Z,98636.98
2024-04-18T03:41:39.018Z,98636.14
2024-04-18T03:42:49.396Z,98629.88
2024-04-18T03:43:51.608Z,98629.05
2024-04-18T03:44:54.532Z,98627.39
2024-04-18T03:46:00.855Z,98631.11
2024-04-18T03:47:03.223Z,98632.11
2024-04-18T03:48:11.235Z,98634.88
2024-04-18T03:49:19.847Z,98636.83
2024-04-18T03:50:22.398Z,98629.30
2024-04-18T03:51:24.687Z,98630.41
2024-04-18T03:52:41.080Z,98626.08
2024-04-18T03:53:57.508Z,98621.75
2024-04-18T03:55:02.963Z,98624.54
2024-04-18T03:56:07.309Z,98626.34
2024-04-18T03:57:09.622Z,98627.19
2024-04-18T03:58:11.994Z,98630.09
2024-04-18T03:59:23.099Z,98615.33
2024-04-18T04:00:25.448Z,98620.63
2024-04-18T04:01:27.818Z,98627.86
2024-04-18T04:02:32.428Z,98616.44
2024-04-18T04:03:34.834Z,98624.38
2024-04-18T04:04:37.245Z,98621.87
2024-04-18T04:05:39.483Z,98622.84
2024-04-18T04:06:41.900Z,98614.91
2024-04-18T04:07:44.003Z,98610.30
2024-04-18T04:08:48.714Z,98615.33
2024-04-18T04:09:51.132Z,98620.20
2024-04-18T04:10:53.432Z,98616.75
2024-04-18T04:11:55.815Z,98613.27
2024-04-18T04:12:58.185Z,98617.83
2024-04-18T04:14:02.428Z,98616.02
2024-04-18T04:15:07.122Z,98625.77
2024-04-18T04:16:09.392Z,98619.66
2024-04-18T04:17:14.527Z,98622.31
2024-04-18T04:18:17.369Z,98619.08
2024-04-18T04:19:19.735Z,98615.59
2024-04-18T04:20:25.561Z,98614.06
2024-04-18T04:21:27.880Z,98613.22
2024-04-18T04:22:33.030Z,98605.43
2024-04-18T04:23:36.507Z,98608.92
2024-04-18T04:24:38.825Z,98614.20
2024-04-18T04:25:56.479Z,98610.57
2024-04-18T04:26:58.680Z,98612.25
2024-04-18T04:28:01.014Z,98607.08
2024-04-18T04:29:03.382Z,98609.61
2024-04-18T04:30:07.287Z,98604.32
2024-04-18T04:31:09.694Z,98609.61
2024-04-18T04:32:20.248Z,98611.41
2024-04-18T04:33:23.043Z,98607.08
2024-04-18T04:34:25.385Z,98604.44
2024-04-18T04:35:27.608Z,98607.23
2024-04-18T04:36:30.062Z,98606.39
2024-04-18T04:37:32.377Z,98603.74
2024-04-18T04:38:34.584Z,98607.38
2024-04-18T04:39:36.903Z,98600.52
2024-04-18T04:40:54.433Z,98603.16
2024-04-18T04:41:56.749Z,98604.84
2024-04-18T04:43:00.587Z,98602.09
2024-04-18T04:44:03.054Z,98600.14
2024-04-18T04:45:07.370Z,98598.19
2024-04-18T04:46:09.516Z,98593.73
2024-04-18T04:47:11.856Z,98595.27
2024-04-18T04:48:16.084Z,98596.95
2024-04-18T04:49:38.592Z,98597.77
2024-04-18T04:50:43.042Z,98595.70
2024-04-18T04:51:48.335Z,98600.88
2024-04-18T04:52:52.603Z,98592.94
2024-04-18T04:53:54.984Z,98593.75
2024-04-18T04:55:04.320Z,98599.88
2024-04-18T04:56:08.226Z,98591.10
2024-04-18T04:57:11.156Z,98593.48
2024-04-18T04:58:13.260Z,98596.97
2024-04-18T04:59:15.587Z,98597.93
2024-04-18T05:00:19.746Z,98586.38
2024-04-18T05:01:35.822Z,98593.48
2024-04-18T05:02:40.645Z,98589.18
2024-04-18T05:03:44.206Z,98596.28
2024-04-18T05:05:01.816Z,98592.78
2024-04-18T05:06:07.064Z,98590.98
2024-04-18T05:07:12.654Z,98585.69
2024-04-18T05:08:14.908Z,98585.69
2024-04-18T05:09:17.614Z,98584.00
2024-04-18T05:10:20.351Z,98582.20
2024-04-18T05:11:22.695Z,98583.16
2024-04-18T05:12:25.010Z,98586.08
2024-04-18T05:13:27.356Z,98580.94
2024-04-18T05:14:31.376Z,98584.69
2024-04-18T05:15:55.546Z,98583.16
2024-04-18T05:17:06.917Z,98585.11
2024-04-18T05:18:09.695Z,98590.25
2024-04-18T05:19:12.251Z,98591.78
2024-04-18T05:20:14.733Z,98585.65
2024-04-18T05:21:16.884Z,98585.65
2024-04-18T05:22:37.747Z,98588.17
2024-04-18T05:23:39.876Z,98588.72
2024-04-18T05:24:42.188Z,98592.78
2024-04-18T05:25:44.576Z,98589.03
2024-04-18T05:26:55.685Z,98597.66
2024-04-18T05:27:58.255Z,98596.55
2024-04-18T05:29:09.688Z,98585.84
2024-04-18T05:30:11.989Z,98587.38
2024-04-18T05:31:14.305Z,98587.23
2024-04-18T05:32:16.506Z,98590.72
2024-04-18T05:33:37.982Z,98595.17
2024-04-18T05:34:40.558Z,98601.04
2024-04-18T05:35:42.914Z,98595.62
2024-04-18T05:36:45.525Z,98596.31
2024-04-18T05:37:47.857Z,98591.98
2024-04-18T05:38:50.228Z,98597.55
2024-04-18T05:39:52.973Z,98595.75
2024-04-18T05:40:55.747Z,98597.43
2024-04-18T05:41:59.861Z,98593.09
2024-04-18T05:43:07.709Z,98589.48
2024-04-18T05:44:24.495Z,98592.52
2024-04-18T05:45:26.826Z,98585.70
2024-04-18T05:46:38.334Z,98584.31
2024-04-18T05:47:40.647Z,98583.63
2024-04-18T05:48:42.857Z,98578.33
2024-04-18T05:49:45.248Z,98578.45
2024-04-18T05:50:47.564Z,98580.25
2024-04-18T05:51:58.825Z,98582.05
2024-04-18T05:53:07.095Z,98583.16
2024-04-18T05:54:20.566Z,98589.45
2024-04-18T05:55:41.601Z,98587.07
2024-04-18T05:56:43.859Z,98594.43
2024-04-18T05:57:46.117Z,98584.69
2024-04-18T05:59:06.855Z,98590.83
2024-04-18T06:00:10.672Z,98582.89
2024-04-18T06:01:15.003Z,98587.19
2024-04-18T06:02:17.526Z,98591.37
2024-04-18T06:03:19.926Z,98584.16
2024-04-18T06:04:22.219Z,98590.14
2024-04-18T06:05:26.308Z,98589.18
2024-04-18T06:06:47.172Z,98583.73
2024-04-18T06:07:55.381Z,98583.63
2024-04-18T06:08:57.643Z,98588.19
2024-04-18T06:09:59.938Z,98580.41
2024-04-18T06:11:02.067Z,98588.72
2024-04-18T06:12:04.901Z,98590.41
2024-04-18T06:13:07.145Z,98586.92
2024-04-18T06:14:12.362Z,98587.77
2024-04-18T06:15:16.477Z,98599.04
2024-04-18T06:16:19.854Z,98600.58
2024-04-18T06:17:25.208Z,98599.50
2024-04-18T06:18:32.021Z,98608.13
2024-04-18T06:19:34.794Z,98607.98
2024-04-18T06:20:41.991Z,98606.75
2024-04-18T06:21:44.845Z,98616.34
2024-04-18T06:22:47.264Z,98616.49
2024-04-18T06:24:04.418Z,98612.31
2024-04-18T06:25:07.599Z,98610.77
2024-04-18T06:26:10.601Z,98612.58
2024-04-18T06:27:13.127Z,98615.23
2024-04-18T06:28:15.672Z,98613.42
2024-04-18T06:29:18.192Z,98613.00
2024-04-18T06:30:22.481Z,98615.38
2024-04-18T06:31:26.850Z,98621.10
2024-04-18T06:32:30.424Z,98623.48
2024-04-18T06:33:33.688Z,98622.25
2024-04-18T06:34:36.751Z,98621.14
2024-04-18T06:35:41.170Z,98616.69
2024-04-18T06:36:44.429Z,98621.83
2024-04-18T06:37:50.351Z,98624.20
2024-04-18T06:38:52.989Z,98620.45
2024-04-18T06:39:58.446Z,98623.78
2024-04-18T06:41:00.904Z,98621.02
2024-04-18T06:42:06.221Z,98617.53
2024-04-18T06:43:09.253Z,98619.33
2024-04-18T06:44:11.998Z,98611.54
2024-04-18T06:45:14.861Z,98618.38
2024-04-18T06:46:17.632Z,98618.38
2024-04-18T06:47:20.100Z,98621.14
2024-04-18T06:48:41.545Z,98617.92
2024-04-18T06:49:44.439Z,98604.83
2024-04-18T06:50:48.075Z,98610.39
2024-04-18T06:51:50.781Z,98604.53
2024-04-18T06:52:55.137Z,98607.17
2024-04-18T06:53:57.616Z,98609.28
2024-04-18T06:55:02.314Z,98606.06
2024-04-18T06:56:22.805Z,98602.84
2024-04-18T06:57:27.564Z,98605.91
2024-04-18T06:58:29.994Z,98604.48
2024-04-18T06:59:34.529Z,98605.48
2024-04-18T07:00:37.329Z,98604.79
2024-04-18T07:01:39.900Z,98596.85
2024-04-18T07:02:44.987Z,98594.90
2024-04-18T07:04:06.190Z,98601.03
2024-04-18T07:05:08.913Z,98596.44
2024-04-18T07:06:13.463Z,98605.06
2024-04-18T07:07:17.811Z,98605.91
2024-04-18T07:08:20.353Z,98592.25
2024-04-18T07:09:23.150Z,98595.02
2024-04-18T07:10:27.621Z,98595.16
2024-04-18T07:11:30.415Z,98601.30
2024-04-18T07:12:32.908Z,98596.55
2024-04-18T07:13:53.380Z,98591.83
2024-04-18T07:15:08.321Z,98598.66
2024-04-18T07:16:19.565Z,98592.10
2024-04-18T07:17:31.205Z,98600.19
2024-04-18T07:18:41.009Z,98597.93
2024-04-18T07:19:43.755Z,98595.44
2024-04-18T07:20:48.273Z,98598.34
2024-04-18T07:21:51.289Z,98604.48
2024-04-18T07:22:53.894Z,98607.13
2024-04-18T07:24:01.623Z,98604.59
2024-04-18T07:25:19.614Z,98600.41
2024-04-18T07:26:22.626Z,98601.41
2024-04-18T07:27:25.017Z,98602.25
2024-04-18T07:28:27.870Z,98596.66
2024-04-18T07:29:30.662Z,98599.19
2024-04-18T07:30:33.609Z,98595.58
2024-04-18T07:31:36.786Z,98596.39
2024-04-18T07:32:49.275Z,98601.56
2024-04-18T07:33:52.294Z,98603.22
2024-04-18T07:34:54.936Z,98600.58
2024-04-18T07:35:59.451Z,98605.75
2024-04-18T07:37:01.948Z,98612.58
2024-04-18T07:38:05.517Z,98612.31
2024-04-18T07:39:08.176Z,98614.80
2024-04-18T07:40:11.071Z,98611.20
2024-04-18T07:41:13.923Z,98614.54
2024-04-18T07:42:16.667Z,98618.88
2024-04-18T07:43:21.242Z,98612.05
2024-04-18T07:44:25.135Z,98614.69
2024-04-18T07:45:28.340Z,98617.19
2024-04-18T07:46:33.373Z,98617.88
2024-04-18T07:47:36.082Z,98611.51
2024-04-18T07:48:39.038Z,98608.02
2024-04-18T07:49:44.126Z,98603.56
2024-04-18T07:50:46.838Z,98610.66
2024-04-18T07:51:49.992Z,98609.67
2024-04-18T07:52:57.196Z,98608.71
2024-04-18T07:53:59.857Z,98607.48
2024-04-18T07:55:04.468Z,98614.03
2024-04-18T07:56:08.359Z,98612.63
2024-04-18T07:57:14.916Z,98619.33
2024-04-18T07:58:18.474Z,98611.81
2024-04-18T07:59:21.865Z,98608.20
2024-04-18T08:00:26.291Z,98610.97
2024-04-18T08:01:31.003Z,98608.59
2024-04-18T08:02:35.694Z,98614.03
2024-04-18T08:03:40.539Z,98609.02
2024-04-18T08:04:53.274Z,98604.68
2024-04-18T08:05:50.233Z,98604.68
2024-04-18T08:06:54.772Z,98605.67
2024-04-18T08:07:58.665Z,98595.20
2024-04-18T08:09:04.217Z,98592.86
2024-04-18T08:10:09.136Z,98600.66
2024-04-18T08:11:39.869Z,98591.17
2024-04-18T08:12:24.327Z,98585.19
2024-04-18T08:13:22.742Z,98586.30
2024-04-18T08:14:27.541Z,98581.70
2024-04-18T08:16:32.703Z,98571.95
2024-04-18T08:17:35.329Z,98567.63
2024-04-18T08:18:37.765Z,98562.17
2024-04-18T08:19:40.129Z,98564.28
2024-04-18T08:20:43.661Z,98560.91
2024-04-18T08:21:46.137Z,98561.22
2024-04-18T08:22:48.466Z,98567.47
2024-04-18T08:23:50.657Z,98560.77
2024-04-18T08:24:53.351Z,98564.41
2024-04-18T08:25:55.847Z,98562.99
2024-04-18T08:26:58.635Z,98568.44
2024-04-18T08:28:00.829Z,98564.80
2024-04-18T08:29:03.392Z,98562.15
2024-04-18T08:30:06.636Z,98564.11
2024-04-18T08:31:10.987Z,98574.42
2024-04-18T08:32:13.460Z,98569.01
2024-04-18T08:33:15.998Z,98575.95
2024-04-18T08:34:19.735Z,98576.95
2024-04-18T08:35:23.529Z,98568.16
2024-04-18T08:36:26.182Z,98576.37
2024-04-18T08:37:29.671Z,98564.95
2024-04-18T08:38:32.195Z,98561.45
2024-04-18T08:39:35.341Z,98570.39
2024-04-18T08:40:38.205Z,98564.25
2024-04-18T08:41:44.050Z,98550.72
2024-04-18T08:42:46.101Z,98565.21
2024-04-18T08:43:52.318Z,98554.32
2024-04-18T08:44:53.484Z,98556.81
2024-04-18T08:45:59.526Z,98556.00
2024-04-18T08:47:02.129Z,98560.19
2024-04-18T08:48:06.261Z,98559.20
2024-04-18T08:49:09.094Z,98563.52
2024-04-18T08:50:13.444Z,98557.39
2024-04-18T08:51:17.036Z,98560.87
2024-04-18T08:52:19.286Z,98565.91
2024-04-18T08:53:21.721Z,98560.73
2024-04-18T08:54:24.053Z,98556.43
2024-04-18T08:55:30.337Z,98552.37
2024-04-18T08:56:34.167Z,98551.95
2024-04-18T08:57:44.745Z,98548.88
2024-04-18T08:58:47.086Z,98552.36
2024-04-18T08:59:52.105Z,98553.05
2024-04-18T09:00:55.452Z,98542.63
2024-04-18T09:01:57.834Z,98539.41
2024-04-18T09:03:00.066Z,98549.14
2024-04-18T09:04:02.583Z,98544.92
2024-04-18T09:05:05.231Z,98551.17
2024-04-18T09:06:08.719Z,98545.80
2024-04-18T09:07:11.061Z,98545.53
2024-04-18T09:08:13.280Z,98541.78
2024-04-18T09:09:15.843Z,98539.83
2024-04-18T09:10:18.411Z,98528.55
2024-04-18T09:11:22.625Z,98538.30
2024-04-18T09:12:24.930Z,98533.96
2024-04-18T09:13:29.794Z,98529.40
2024-04-18T09:14:34.739Z,98532.05
2024-04-18T09:15:37.441Z,98528.41
2024-04-18T09:16:39.919Z,98528.29
2024-04-18T09:17:42.220Z,98520.47
2024-04-18T09:18:45.331Z,98518.81
2024-04-18T09:19:48.866Z,98517.98
2024-04-18T09:20:51.731Z,98517.40
2024-04-18T09:21:54.177Z,98514.91
2024-04-18T09:22:56.578Z,98508.77
2024-04-18T09:23:59.041Z,98505.14
2024-04-18T09:25:01.805Z,98517.40
2024-04-18T09:26:04.566Z,98511.15
2024-04-18T09:27:06.854Z,98513.80
2024-04-18T09:28:09.026Z,98513.38
2024-04-18T09:29:13.584Z,98507.13
2024-04-18T09:30:16.438Z,98501.11
2024-04-18T09:31:21.590Z,98501.95
2024-04-18T09:32:23.643Z,98507.24
2024-04-18T09:33:26.272Z,98498.47
2024-04-18T09:34:30.489Z,98502.64
2024-04-18T09:35:34.633Z,98500.72
2024-04-18T09:36:39.056Z,98500.57
2024-04-18T09:37:44.782Z,98503.09
2024-04-18T09:38:50.198Z,98499.34
2024-04-18T09:39:54.925Z,98499.45
2024-04-18T09:41:06.860Z,98498.77
2024-04-18T09:42:21.727Z,98502.10
2024-04-18T09:43:30.533Z,98500.88
2024-04-18T09:44:34.357Z,98502.52
2024-04-18T09:45:42.940Z,98514.95
2024-04-18T09:46:46.589Z,98500.30
2024-04-18T09:47:48.977Z,98504.06
2024-04-18T09:48:53.195Z,98498.92
2024-04-18T09:49:55.917Z,98492.22
2024-04-18T09:50:59.724Z,98491.52
2024-04-18T09:52:02.232Z,98494.44
2024-04-18T09:53:05.245Z,98494.55
2024-04-18T09:54:08.086Z,98495.28
2024-04-18T09:55:11.917Z,98484.70
2024-04-18T09:56:14.273Z,98487.34
2024-04-18T09:57:16.977Z,98484.09
2024-04-18T09:58:19.254Z,98478.95
2024-04-18T09:59:21.733Z,98485.06
2024-04-18T10:00:24.644Z,98485.06
2024-04-18T10:01:26.980Z,98482.56
2024-04-18T10:02:29.536Z,98488.70
2024-04-18T10:03:31.994Z,98482.17
2024-04-18T10:04:34.758Z,98483.86
2024-04-18T10:05:37.685Z,98481.91
2024-04-18T10:06:41.735Z,98474.96
2024-04-18T10:07:44.922Z,98477.73
2024-04-18T10:08:50.074Z,98469.94
2024-04-18T10:09:53.614Z,98460.45
2024-04-18T10:10:58.330Z,98461.41
2024-04-18T10:12:01.232Z,98455.42
2024-04-18T10:13:04.741Z,98458.45
2024-04-18T10:14:08.111Z,98459.99
2024-04-18T10:15:10.304Z,98450.14
2024-04-18T10:16:14.522Z,98444.97
2024-04-18T10:17:24.146Z,98460.14
2024-04-18T10:18:30.394Z,98456.66
2024-04-18T10:19:32.928Z,98446.23
2024-04-18T10:20:35.337Z,98449.00
2024-04-18T10:21:43.349Z,98448.45
2024-04-18T10:22:47.191Z,98446.63
2024-04-18T10:23:55.056Z,98440.22
2024-04-18T10:24:57.585Z,98446.23
2024-04-18T10:25:59.882Z,98445.23
2024-04-18T10:27:10.094Z,98448.61
2024-04-18T10:28:25.132Z,98447.49
2024-04-18T10:29:27.912Z,98440.94
2024-04-18T10:30:31.788Z,98443.59
2024-04-18T10:31:37.839Z,98444.42
2024-04-18T10:32:42.301Z,98447.07
2024-04-18T10:33:45.255Z,98446.23
2024-04-18T10:34:48.956Z,98448.18
2024-04-18T10:35:52.669Z,98440.37
2024-04-18T10:36:57.179Z,98431.74
2024-04-18T10:38:00.273Z,98434.27
2024-04-18T10:39:02.747Z,98442.20
2024-04-18T10:40:06.467Z,98440.25
2024-04-18T10:41:11.333Z,98437.45
2024-04-18T10:42:14.613Z,98440.70
2024-04-18T10:43:19.973Z,98444.75
2024-04-18T10:44:21.272Z,98435.98
2024-04-18T10:45:24.495Z,98442.38
2024-04-18T10:46:26.839Z,98440.01
2024-04-18T10:47:31.205Z,98441.09
2024-04-18T10:48:35.576Z,98437.87
2024-04-18T10:49:38.168Z,98441.48
2024-04-18T10:50:40.932Z,98438.84
2024-04-18T10:51:43.634Z,98429.25
2024-04-18T10:52:47.838Z,98425.89
2024-04-18T10:53:54.957Z,98433.97
2024-04-18T10:54:57.481Z,98432.17
2024-04-18T10:55:59.815Z,98430.36
2024-04-18T10:57:02.159Z,98433.81
2024-04-18T10:58:04.737Z,98425.20
2024-04-18T10:59:10.399Z,98426.19
2024-04-18T11:01:18.370Z,98402.92
2024-04-18T11:02:20.643Z,98394.16
2024-04-18T11:03:23.230Z,98390.70
2024-04-18T11:04:26.421Z,98393.19
2024-04-18T11:05:29.980Z,98390.55
2024-04-18T11:06:32.235Z,98388.86
2024-04-18T11:07:34.756Z,98389.98
2024-04-18T11:08:37.048Z,98392.92
2024-04-18T11:09:39.596Z,98394.73
2024-04-18T11:10:42.683Z,98395.57
2024-04-18T11:11:44.993Z,98396.53
2024-04-18T11:12:47.626Z,98415.16
2024-04-18T11:13:50.466Z,98419.76
2024-04-18T11:14:52.868Z,98432.86
2024-04-18T11:15:54.978Z,98429.22
2024-04-18T11:16:58.491Z,98438.57
2024-04-18T11:18:06.079Z,98444.55
2024-04-18T11:19:09.083Z,98447.88
2024-04-18T11:20:11.816Z,98446.08
2024-04-18T11:21:17.390Z,98450.14
2024-04-18T11:22:19.665Z,98455.42
2024-04-18T11:23:35.303Z,98453.47
2024-04-18T11:24:29.691Z,98452.52
2024-04-18T11:25:34.368Z,98441.09
2024-04-18T11:26:40.225Z,98445.39
2024-04-18T11:27:43.537Z,98431.35
2024-04-18T11:28:49.386Z,98431.35
2024-04-18T11:29:51.606Z,98423.69
2024-04-18T11:30:54.150Z,98424.08
2024-04-18T11:32:10.584Z,98412.81
2024-04-18T11:33:13.084Z,98415.46
2024-04-18T11:34:17.785Z,98406.56
2024-04-18T11:35:20.303Z,98406.69
2024-04-18T11:36:22.788Z,98400.70
2024-04-18T11:37:25.263Z,98403.62
2024-04-18T11:38:30.679Z,98391.52
2024-04-18T11:39:32.817Z,98395.27
2024-04-18T11:40:35.195Z,98396.11
2024-04-18T11:41:37.973Z,98390.83
2024-04-18T11:42:40.350Z,98394.43
2024-04-18T11:43:42.643Z,98393.59
2024-04-18T11:44:44.840Z,98387.61
2024-04-18T11:45:47.229Z,98387.05
2024-04-18T11:46:49.725Z,98395.97
2024-04-18T11:48:00.861Z,98391.52
2024-04-18T11:49:03.647Z,98392.33
2024-04-18T11:50:06.932Z,98393.05
2024-04-18T11:51:09.242Z,98393.86
2024-04-18T11:52:11.772Z,98395.55
2024-04-18T11:53:15.888Z,98394.59
2024-04-18T11:54:18.091Z,98381.48
2024-04-18T11:55:23.178Z,98383.59
2024-04-18T11:56:25.521Z,98393.44
2024-04-18T11:57:27.933Z,98391.79
2024-04-18T11:58:30.169Z,98405.70
2024-04-18T11:59:32.752Z,98399.99
2024-04-18T12:00:35.184Z,98393.98
2024-04-18T12:01:43.783Z,98407.92
2024-04-18T12:02:55.336Z,98397.34
2024-04-18T12:03:57.842Z,98412.94
2024-04-18T12:05:08.287Z,98404.02
2024-04-18T12:06:12.454Z,98412.09
2024-04-18T12:07:16.630Z,98408.46
2024-04-18T12:08:20.014Z,98411.67
2024-04-18T12:09:22.392Z,98413.90
2024-04-18T12:10:26.054Z,98416.16
2024-04-18T12:11:30.944Z,98412.52
2024-04-18T12:12:46.160Z,98413.93
2024-04-18T12:13:57.468Z,98408.80
2024-04-18T12:14:59.668Z,98406.15
2024-04-18T12:16:02.232Z,98408.48
2024-04-18T12:17:04.991Z,98410.86
2024-04-18T12:18:19.091Z,98403.50
2024-04-18T12:19:24.363Z,98413.11
2024-04-18T12:20:26.629Z,98407.67
2024-04-18T12:21:29.008Z,98406.56
2024-04-18T12:22:31.561Z,98411.76
2024-04-18T12:23:49.162Z,98408.00
2024-04-18T12:24:51.473Z,98415.78
2024-04-18T12:25:53.772Z,98411.61
2024-04-18T12:26:55.981Z,98405.35
2024-04-18T12:27:58.346Z,98408.84
2024-04-18T12:29:06.550Z,98403.40
2024-04-18T12:30:12.721Z,98406.73
2024-04-18T12:31:16.377Z,98407.57
2024-04-18T12:32:26.841Z,98406.73
2024-04-18T12:33:29.292Z,98418.16
2024-04-18T12:34:31.603Z,98413.83
2024-04-18T12:35:39.555Z,98424.28
2024-04-18T12:36:41.947Z,98434.86
2024-04-18T12:37:46.087Z,98423.29
2024-04-18T12:38:48.464Z,98423.17
2024-04-18T12:39:50.848Z,98431.95
2024-04-18T12:41:04.697Z,98418.30
2024-04-18T12:42:06.470Z,98420.50
2024-04-18T12:43:11.312Z,98411.16